sensor_id;sensor_type;location;lat;lon;timestamp;P1;durP1;ratioP1;P2;durP2;ratioP2
78664;SDS011;67981;51.022;-2.870;2024-01-27T00:01:35;10.88;;;3.17;;
78664;SDS011;67981;51.022;-2.870;2024-01-27T00:04:01;12.77;;;3.53;;
78664;SDS011;67981;51.022;-2.870;2024-01-27T00:06:27;11.50;;;3.08;;
78664;SDS011;67981;51.022;-2.870;2024-01-27T00:08:52;10.52;;;3.35;;
78664;SDS011;67981;51.022;-2.870;2024-01-27T00:11:18;5.97;;;2.78;;
78664;SDS011;67981;51.022;-2.870;2024-01-27T00:13:44;5.30;;;2.90;;
78664;SDS011;67981;51.022;-2.870;2024-01-27T00:16:10;8.60;;;2.58;;
78664;SDS011;67981;51.022;-2.870;2024-01-27T00:18:35;11.00;;;2.92;;
78664;SDS011;67981;51.022;-2.870;2024-01-27T00:21:02;6.35;;;3.10;;
78664;SDS011;67981;51.022;-2.870;2024-01-27T00:23:28;6.68;;;3.00;;
78664;SDS011;67981;51.022;-2.870;2024-01-27T00:25:54;10.25;;;2.88;;
78664;SDS011;67981;51.022;-2.870;2024-01-27T00:28:19;8.85;;;3.03;;
78664;SDS011;67981;51.022;-2.870;2024-01-27T00:30:44;7.35;;;2.95;;
78664;SDS011;67981;51.022;-2.870;2024-01-27T00:33:10;9.02;;;2.85;;
78664;SDS011;67981;51.022;-2.870;2024-01-27T00:35:35;7.53;;;3.28;;
78664;SDS011;67981;51.022;-2.870;2024-01-27T00:38:01;11.02;;;2.78;;
78664;SDS011;67981;51.022;-2.870;2024-01-27T00:40:26;7.13;;;3.05;;
78664;SDS011;67981;51.022;-2.870;2024-01-27T00:42:51;7.80;;;2.92;;
78664;SDS011;67981;51.022;-2.870;2024-01-27T00:45:17;10.25;;;3.05;;
78664;SDS011;67981;51.022;-2.870;2024-01-27T00:47:42;9.40;;;3.13;;
78664;SDS011;67981;51.022;-2.870;2024-01-27T00:50:08;11.80;;;3.47;;
78664;SDS011;67981;51.022;-2.870;2024-01-27T00:52:34;5.90;;;3.33;;
78664;SDS011;67981;51.022;-2.870;2024-01-27T00:55:00;6.35;;;2.83;;
78664;SDS011;67981;51.022;-2.870;2024-01-27T00:57:25;7.05;;;3.65;;
78664;SDS011;67981;51.022;-2.870;2024-01-27T00:59:51;12.65;;;4.18;;
78664;SDS011;67981;51.022;-2.870;2024-01-27T01:02:16;7.20;;;3.08;;
78664;SDS011;67981;51.022;-2.870;2024-01-27T01:04:42;8.77;;;3.50;;
78664;SDS011;67981;51.022;-2.870;2024-01-27T01:07:10;10.77;;;3.70;;
78664;SDS011;67981;51.022;-2.870;2024-01-27T01:09:36;4.55;;;2.95;;
78664;SDS011;67981;51.022;-2.870;2024-01-27T01:12:01;11.25;;;3.97;;
78664;SDS011;67981;51.022;-2.870;2024-01-27T01:14:27;8.98;;;3.42;;
78664;SDS011;67981;51.022;-2.870;2024-01-27T01:16:52;9.13;;;5.15;;
78664;SDS011;67981;51.022;-2.870;2024-01-27T01:19:18;6.47;;;4.10;;
78664;SDS011;67981;51.022;-2.870;2024-01-27T01:21:44;8.18;;;3.20;;
78664;SDS011;67981;51.022;-2.870;2024-01-27T01:24:11;11.00;;;2.72;;
78664;SDS011;67981;51.022;-2.870;2024-01-27T01:26:37;8.93;;;2.83;;
78664;SDS011;67981;51.022;-2.870;2024-01-27T01:29:02;11.07;;;2.92;;
78664;SDS011;67981;51.022;-2.870;2024-01-27T01:31:28;7.53;;;2.55;;
78664;SDS011;67981;51.022;-2.870;2024-01-27T01:33:53;12.38;;;2.90;;
78664;SDS011;67981;51.022;-2.870;2024-01-27T01:36:18;9.82;;;2.95;;
78664;SDS011;67981;51.022;-2.870;2024-01-27T01:38:44;9.48;;;2.50;;
78664;SDS011;67981;51.022;-2.870;2024-01-27T01:41:10;12.65;;;3.08;;
78664;SDS011;67981;51.022;-2.870;2024-01-27T01:43:36;7.45;;;2.35;;
78664;SDS011;67981;51.022;-2.870;2024-01-27T01:46:01;9.55;;;2.10;;
78664;SDS011;67981;51.022;-2.870;2024-01-27T01:48:27;11.73;;;2.78;;
78664;SDS011;67981;51.022;-2.870;2024-01-27T01:50:54;7.55;;;1.50;;
78664;SDS011;67981;51.022;-2.870;2024-01-27T01:53:21;8.82;;;2.58;;
78664;SDS011;67981;51.022;-2.870;2024-01-27T01:55:47;4.95;;;2.65;;
78664;SDS011;67981;51.022;-2.870;2024-01-27T01:58:15;5.97;;;2.22;;
78664;SDS011;67981;51.022;-2.870;2024-01-27T02:00:41;8.65;;;2.47;;
78664;SDS011;67981;51.022;-2.870;2024-01-27T02:03:10;9.13;;;2.55;;
78664;SDS011;67981;51.022;-2.870;2024-01-27T02:05:38;10.07;;;2.05;;
78664;SDS011;67981;51.022;-2.870;2024-01-27T02:08:04;4.68;;;1.92;;
78664;SDS011;67981;51.022;-2.870;2024-01-27T02:10:30;10.57;;;1.90;;
78664;SDS011;67981;51.022;-2.870;2024-01-27T02:13:02;9.00;;;2.40;;
78664;SDS011;67981;51.022;-2.870;2024-01-27T02:15:48;5.35;;;1.95;;
78664;SDS011;67981;51.022;-2.870;2024-01-27T02:18:14;12.18;;;2.53;;
78664;SDS011;67981;51.022;-2.870;2024-01-27T02:20:40;5.32;;;2.38;;
78664;SDS011;67981;51.022;-2.870;2024-01-27T02:23:05;9.93;;;2.20;;
78664;SDS011;67981;51.022;-2.870;2024-01-27T02:25:31;9.00;;;1.80;;
78664;SDS011;67981;51.022;-2.870;2024-01-27T02:27:57;6.20;;;2.05;;
78664;SDS011;67981;51.022;-2.870;2024-01-27T02:30:23;5.00;;;2.70;;
78664;SDS011;67981;51.022;-2.870;2024-01-27T02:32:48;10.40;;;1.90;;
78664;SDS011;67981;51.022;-2.870;2024-01-27T02:35:14;8.82;;;1.48;;
78664;SDS011;67981;51.022;-2.870;2024-01-27T02:37:41;3.60;;;1.90;;
78664;SDS011;67981;51.022;-2.870;2024-01-27T02:40:07;7.15;;;2.20;;
78664;SDS011;67981;51.022;-2.870;2024-01-27T02:42:34;9.13;;;2.95;;
78664;SDS011;67981;51.022;-2.870;2024-01-27T02:45:00;5.40;;;1.52;;
78664;SDS011;67981;51.022;-2.870;2024-01-27T02:47:26;7.70;;;1.90;;
78664;SDS011;67981;51.022;-2.870;2024-01-27T02:49:51;5.53;;;2.08;;
78664;SDS011;67981;51.022;-2.870;2024-01-27T02:52:17;5.65;;;1.80;;
78664;SDS011;67981;51.022;-2.870;2024-01-27T02:54:42;7.07;;;2.03;;
78664;SDS011;67981;51.022;-2.870;2024-01-27T02:57:07;6.07;;;1.67;;
78664;SDS011;67981;51.022;-2.870;2024-01-27T02:59:33;8.95;;;2.30;;
78664;SDS011;67981;51.022;-2.870;2024-01-27T03:01:58;6.07;;;2.08;;
78664;SDS011;67981;51.022;-2.870;2024-01-27T03:04:24;5.80;;;1.90;;
78664;SDS011;67981;51.022;-2.870;2024-01-27T03:06:49;6.38;;;2.25;;
78664;SDS011;67981;51.022;-2.870;2024-01-27T03:09:15;6.20;;;1.52;;
78664;SDS011;67981;51.022;-2.870;2024-01-27T03:11:40;4.88;;;1.40;;
78664;SDS011;67981;51.022;-2.870;2024-01-27T03:14:05;6.75;;;1.92;;
78664;SDS011;67981;51.022;-2.870;2024-01-27T03:16:31;5.53;;;2.15;;
78664;SDS011;67981;51.022;-2.870;2024-01-27T03:18:57;6.53;;;2.47;;
78664;SDS011;67981;51.022;-2.870;2024-01-27T03:21:22;3.80;;;2.13;;
78664;SDS011;67981;51.022;-2.870;2024-01-27T03:23:48;4.03;;;1.60;;
78664;SDS011;67981;51.022;-2.870;2024-01-27T03:26:13;12.60;;;3.28;;
78664;SDS011;67981;51.022;-2.870;2024-01-27T03:28:39;2.90;;;1.63;;
78664;SDS011;67981;51.022;-2.870;2024-01-27T03:31:04;7.70;;;2.35;;
78664;SDS011;67981;51.022;-2.870;2024-01-27T03:33:29;9.60;;;2.47;;
78664;SDS011;67981;51.022;-2.870;2024-01-27T03:35:55;17.08;;;2.05;;
78664;SDS011;67981;51.022;-2.870;2024-01-27T03:38:21;8.45;;;3.38;;
78664;SDS011;67981;51.022;-2.870;2024-01-27T03:40:46;3.88;;;1.70;;
78664;SDS011;67981;51.022;-2.870;2024-01-27T03:43:12;6.88;;;2.53;;
78664;SDS011;67981;51.022;-2.870;2024-01-27T03:45:37;5.28;;;1.70;;
78664;SDS011;67981;51.022;-2.870;2024-01-27T03:48:02;5.82;;;2.38;;
78664;SDS011;67981;51.022;-2.870;2024-01-27T03:50:28;4.68;;;2.75;;
78664;SDS011;67981;51.022;-2.870;2024-01-27T03:52:53;12.85;;;4.25;;
78664;SDS011;67981;51.022;-2.870;2024-01-27T03:55:19;9.00;;;3.60;;
78664;SDS011;67981;51.022;-2.870;2024-01-27T03:57:44;6.55;;;2.00;;
78664;SDS011;67981;51.022;-2.870;2024-01-27T04:00:10;5.40;;;2.08;;
78664;SDS011;67981;51.022;-2.870;2024-01-27T04:02:37;8.32;;;1.95;;
78664;SDS011;67981;51.022;-2.870;2024-01-27T04:05:03;9.10;;;3.33;;
78664;SDS011;67981;51.022;-2.870;2024-01-27T04:07:30;9.23;;;2.72;;
78664;SDS011;67981;51.022;-2.870;2024-01-27T04:09:55;13.43;;;2.70;;
78664;SDS011;67981;51.022;-2.870;2024-01-27T04:12:20;12.18;;;2.40;;
78664;SDS011;67981;51.022;-2.870;2024-01-27T04:14:46;6.55;;;2.63;;
78664;SDS011;67981;51.022;-2.870;2024-01-27T04:17:11;5.07;;;2.08;;
78664;SDS011;67981;51.022;-2.870;2024-01-27T04:19:37;7.07;;;1.98;;
78664;SDS011;67981;51.022;-2.870;2024-01-27T04:22:02;5.03;;;1.75;;
78664;SDS011;67981;51.022;-2.870;2024-01-27T04:24:28;6.82;;;2.85;;
78664;SDS011;67981;51.022;-2.870;2024-01-27T04:26:54;5.97;;;2.38;;
78664;SDS011;67981;51.022;-2.870;2024-01-27T04:29:19;5.53;;;2.55;;
78664;SDS011;67981;51.022;-2.870;2024-01-27T04:31:45;4.32;;;2.42;;
78664;SDS011;67981;51.022;-2.870;2024-01-27T04:34:10;10.23;;;3.17;;
78664;SDS011;67981;51.022;-2.870;2024-01-27T04:36:35;8.35;;;2.17;;
78664;SDS011;67981;51.022;-2.870;2024-01-27T04:39:01;8.35;;;2.08;;
78664;SDS011;67981;51.022;-2.870;2024-01-27T04:41:27;8.25;;;4.43;;
78664;SDS011;67981;51.022;-2.870;2024-01-27T04:43:53;10.95;;;3.67;;
78664;SDS011;67981;51.022;-2.870;2024-01-27T04:46:20;6.88;;;3.15;;
78664;SDS011;67981;51.022;-2.870;2024-01-27T04:48:45;9.90;;;3.88;;
78664;SDS011;67981;51.022;-2.870;2024-01-27T04:51:11;11.60;;;5.03;;
78664;SDS011;67981;51.022;-2.870;2024-01-27T04:53:36;8.27;;;3.88;;
78664;SDS011;67981;51.022;-2.870;2024-01-27T04:56:02;6.70;;;3.17;;
78664;SDS011;67981;51.022;-2.870;2024-01-27T04:58:27;8.38;;;2.90;;
78664;SDS011;67981;51.022;-2.870;2024-01-27T05:00:52;7.03;;;2.92;;
78664;SDS011;67981;51.022;-2.870;2024-01-27T05:03:18;11.93;;;4.68;;
78664;SDS011;67981;51.022;-2.870;2024-01-27T05:05:43;16.08;;;6.90;;
78664;SDS011;67981;51.022;-2.870;2024-01-27T05:08:09;12.15;;;5.90;;
78664;SDS011;67981;51.022;-2.870;2024-01-27T05:10:35;13.30;;;4.43;;
78664;SDS011;67981;51.022;-2.870;2024-01-27T05:13:01;13.38;;;5.10;;
78664;SDS011;67981;51.022;-2.870;2024-01-27T05:15:26;10.00;;;3.97;;
78664;SDS011;67981;51.022;-2.870;2024-01-27T05:17:52;5.95;;;3.33;;
78664;SDS011;67981;51.022;-2.870;2024-01-27T05:20:17;11.88;;;3.58;;
78664;SDS011;67981;51.022;-2.870;2024-01-27T05:22:44;8.73;;;4.60;;
78664;SDS011;67981;51.022;-2.870;2024-01-27T05:25:09;9.02;;;4.05;;
78664;SDS011;67981;51.022;-2.870;2024-01-27T05:27:36;8.88;;;4.80;;
78664;SDS011;67981;51.022;-2.870;2024-01-27T05:30:03;5.80;;;4.00;;
78664;SDS011;67981;51.022;-2.870;2024-01-27T05:32:30;10.48;;;4.30;;
78664;SDS011;67981;51.022;-2.870;2024-01-27T05:34:55;12.32;;;6.95;;
78664;SDS011;67981;51.022;-2.870;2024-01-27T05:37:20;16.95;;;6.88;;
78664;SDS011;67981;51.022;-2.870;2024-01-27T05:39:46;10.97;;;5.57;;
78664;SDS011;67981;51.022;-2.870;2024-01-27T05:42:11;13.40;;;4.75;;
78664;SDS011;67981;51.022;-2.870;2024-01-27T05:44:36;10.02;;;5.47;;
78664;SDS011;67981;51.022;-2.870;2024-01-27T05:47:03;7.18;;;3.97;;
78664;SDS011;67981;51.022;-2.870;2024-01-27T05:49:28;9.57;;;4.35;;
78664;SDS011;67981;51.022;-2.870;2024-01-27T05:51:54;9.52;;;3.55;;
78664;SDS011;67981;51.022;-2.870;2024-01-27T05:54:19;12.02;;;3.60;;
78664;SDS011;67981;51.022;-2.870;2024-01-27T05:56:45;12.63;;;3.58;;
78664;SDS011;67981;51.022;-2.870;2024-01-27T05:59:10;7.80;;;4.25;;
78664;SDS011;67981;51.022;-2.870;2024-01-27T06:01:35;8.55;;;3.38;;
78664;SDS011;67981;51.022;-2.870;2024-01-27T06:04:01;7.57;;;3.28;;
78664;SDS011;67981;51.022;-2.870;2024-01-27T06:06:27;11.43;;;3.67;;
78664;SDS011;67981;51.022;-2.870;2024-01-27T06:08:52;12.18;;;3.08;;
78664;SDS011;67981;51.022;-2.870;2024-01-27T06:11:24;8.30;;;2.70;;
78664;SDS011;67981;51.022;-2.870;2024-01-27T06:13:49;10.18;;;4.25;;
78664;SDS011;67981;51.022;-2.870;2024-01-27T06:16:15;9.13;;;3.75;;
78664;SDS011;67981;51.022;-2.870;2024-01-27T06:18:44;10.43;;;2.95;;
78664;SDS011;67981;51.022;-2.870;2024-01-27T06:21:10;7.18;;;2.88;;
78664;SDS011;67981;51.022;-2.870;2024-01-27T06:23:35;6.47;;;2.38;;
78664;SDS011;67981;51.022;-2.870;2024-01-27T06:26:07;8.60;;;2.67;;
78664;SDS011;67981;51.022;-2.870;2024-01-27T06:28:34;7.95;;;2.90;;
78664;SDS011;67981;51.022;-2.870;2024-01-27T06:31:00;5.60;;;2.70;;
78664;SDS011;67981;51.022;-2.870;2024-01-27T06:33:26;10.38;;;3.47;;
78664;SDS011;67981;51.022;-2.870;2024-01-27T06:35:51;9.00;;;3.83;;
78664;SDS011;67981;51.022;-2.870;2024-01-27T06:38:17;5.10;;;3.00;;
78664;SDS011;67981;51.022;-2.870;2024-01-27T06:40:42;8.85;;;3.78;;
78664;SDS011;67981;51.022;-2.870;2024-01-27T06:43:09;7.18;;;3.50;;
78664;SDS011;67981;51.022;-2.870;2024-01-27T06:45:36;11.40;;;4.80;;
78664;SDS011;67981;51.022;-2.870;2024-01-27T06:48:01;6.75;;;3.05;;
78664;SDS011;67981;51.022;-2.870;2024-01-27T06:50:26;7.13;;;3.33;;
78664;SDS011;67981;51.022;-2.870;2024-01-27T06:52:52;8.35;;;3.38;;
78664;SDS011;67981;51.022;-2.870;2024-01-27T06:55:17;7.13;;;2.95;;
78664;SDS011;67981;51.022;-2.870;2024-01-27T06:57:43;9.10;;;3.20;;
78664;SDS011;67981;51.022;-2.870;2024-01-27T07:00:08;6.30;;;3.08;;
78664;SDS011;67981;51.022;-2.870;2024-01-27T07:02:34;10.13;;;4.28;;
78664;SDS011;67981;51.022;-2.870;2024-01-27T07:04:59;8.57;;;2.40;;
78664;SDS011;67981;51.022;-2.870;2024-01-27T07:07:25;7.63;;;2.72;;
78664;SDS011;67981;51.022;-2.870;2024-01-27T07:09:52;5.50;;;2.40;;
78664;SDS011;67981;51.022;-2.870;2024-01-27T07:12:19;4.18;;;3.67;;
78664;SDS011;67981;51.022;-2.870;2024-01-27T07:14:45;5.63;;;2.63;;
78664;SDS011;67981;51.022;-2.870;2024-01-27T07:17:10;10.82;;;3.65;;
78664;SDS011;67981;51.022;-2.870;2024-01-27T07:19:36;6.15;;;2.47;;
78664;SDS011;67981;51.022;-2.870;2024-01-27T07:22:01;9.93;;;3.08;;
78664;SDS011;67981;51.022;-2.870;2024-01-27T07:24:28;4.97;;;3.15;;
78664;SDS011;67981;51.022;-2.870;2024-01-27T07:26:54;5.82;;;2.60;;
78664;SDS011;67981;51.022;-2.870;2024-01-27T07:29:19;7.43;;;3.30;;
78664;SDS011;67981;51.022;-2.870;2024-01-27T07:31:45;12.45;;;3.67;;
78664;SDS011;67981;51.022;-2.870;2024-01-27T07:34:11;4.40;;;2.55;;
78664;SDS011;67981;51.022;-2.870;2024-01-27T07:36:37;7.45;;;3.40;;
78664;SDS011;67981;51.022;-2.870;2024-01-27T07:39:02;6.53;;;3.15;;
78664;SDS011;67981;51.022;-2.870;2024-01-27T07:41:29;9.18;;;4.07;;
78664;SDS011;67981;51.022;-2.870;2024-01-27T07:43:55;6.90;;;4.60;;
78664;SDS011;67981;51.022;-2.870;2024-01-27T07:46:21;11.38;;;4.55;;
78664;SDS011;67981;51.022;-2.870;2024-01-27T07:48:48;10.15;;;4.80;;
78664;SDS011;67981;51.022;-2.870;2024-01-27T07:51:14;9.80;;;4.45;;
78664;SDS011;67981;51.022;-2.870;2024-01-27T07:53:40;8.13;;;4.13;;
78664;SDS011;67981;51.022;-2.870;2024-01-27T07:56:06;8.93;;;3.50;;
78664;SDS011;67981;51.022;-2.870;2024-01-27T07:58:32;8.45;;;3.58;;
78664;SDS011;67981;51.022;-2.870;2024-01-27T08:00:57;6.93;;;4.75;;
78664;SDS011;67981;51.022;-2.870;2024-01-27T08:03:23;11.95;;;3.95;;
78664;SDS011;67981;51.022;-2.870;2024-01-27T08:05:48;10.50;;;4.35;;
78664;SDS011;67981;51.022;-2.870;2024-01-27T08:08:14;8.00;;;3.70;;
78664;SDS011;67981;51.022;-2.870;2024-01-27T08:10:39;7.22;;;4.43;;
78664;SDS011;67981;51.022;-2.870;2024-01-27T08:13:05;7.15;;;3.78;;
78664;SDS011;67981;51.022;-2.870;2024-01-27T08:15:32;11.05;;;3.53;;
78664;SDS011;67981;51.022;-2.870;2024-01-27T08:17:57;8.68;;;4.05;;
78664;SDS011;67981;51.022;-2.870;2024-01-27T08:20:22;7.80;;;3.30;;
78664;SDS011;67981;51.022;-2.870;2024-01-27T08:22:48;9.48;;;4.03;;
78664;SDS011;67981;51.022;-2.870;2024-01-27T08:25:16;9.75;;;3.38;;
78664;SDS011;67981;51.022;-2.870;2024-01-27T08:27:42;6.05;;;3.85;;
78664;SDS011;67981;51.022;-2.870;2024-01-27T08:30:08;7.72;;;3.10;;
78664;SDS011;67981;51.022;-2.870;2024-01-27T08:32:35;12.30;;;5.95;;
78664;SDS011;67981;51.022;-2.870;2024-01-27T08:35:00;41.13;;;36.97;;
78664;SDS011;67981;51.022;-2.870;2024-01-27T08:37:26;32.53;;;27.23;;
78664;SDS011;67981;51.022;-2.870;2024-01-27T08:39:51;8.52;;;5.10;;
78664;SDS011;67981;51.022;-2.870;2024-01-27T08:42:16;11.75;;;7.43;;
78664;SDS011;67981;51.022;-2.870;2024-01-27T08:44:42;19.43;;;8.77;;
78664;SDS011;67981;51.022;-2.870;2024-01-27T08:47:07;12.20;;;8.32;;
78664;SDS011;67981;51.022;-2.870;2024-01-27T08:49:33;13.48;;;7.25;;
78664;SDS011;67981;51.022;-2.870;2024-01-27T08:51:58;11.57;;;5.72;;
78664;SDS011;67981;51.022;-2.870;2024-01-27T08:54:24;10.10;;;5.93;;
78664;SDS011;67981;51.022;-2.870;2024-01-27T08:56:49;9.48;;;4.70;;
78664;SDS011;67981;51.022;-2.870;2024-01-27T08:59:15;7.90;;;3.30;;
78664;SDS011;67981;51.022;-2.870;2024-01-27T09:01:41;6.25;;;2.90;;
78664;SDS011;67981;51.022;-2.870;2024-01-27T09:04:07;9.27;;;3.42;;
78664;SDS011;67981;51.022;-2.870;2024-01-27T09:06:33;13.77;;;3.70;;
78664;SDS011;67981;51.022;-2.870;2024-01-27T09:08:58;7.10;;;3.05;;
78664;SDS011;67981;51.022;-2.870;2024-01-27T09:11:24;7.70;;;3.40;;
78664;SDS011;67981;51.022;-2.870;2024-01-27T09:13:52;6.88;;;2.85;;
78664;SDS011;67981;51.022;-2.870;2024-01-27T09:16:18;7.60;;;3.92;;
78664;SDS011;67981;51.022;-2.870;2024-01-27T09:18:44;11.05;;;3.65;;
78664;SDS011;67981;51.022;-2.870;2024-01-27T09:21:10;8.35;;;3.42;;
78664;SDS011;67981;51.022;-2.870;2024-01-27T09:23:36;10.07;;;3.83;;
78664;SDS011;67981;51.022;-2.870;2024-01-27T09:26:02;11.93;;;4.13;;
78664;SDS011;67981;51.022;-2.870;2024-01-27T09:28:28;10.55;;;3.67;;
78664;SDS011;67981;51.022;-2.870;2024-01-27T09:30:53;12.45;;;3.65;;
78664;SDS011;67981;51.022;-2.870;2024-01-27T09:33:18;46.85;;;30.25;;
78664;SDS011;67981;51.022;-2.870;2024-01-27T09:35:48;27.75;;;20.65;;
78664;SDS011;67981;51.022;-2.870;2024-01-27T09:38:14;19.98;;;14.65;;
78664;SDS011;67981;51.022;-2.870;2024-01-27T09:40:40;19.92;;;16.58;;
78664;SDS011;67981;51.022;-2.870;2024-01-27T09:43:06;38.63;;;22.98;;
78664;SDS011;67981;51.022;-2.870;2024-01-27T09:45:31;72.38;;;42.55;;
78664;SDS011;67981;51.022;-2.870;2024-01-27T09:47:57;132.60;;;65.35;;
78664;SDS011;67981;51.022;-2.870;2024-01-27T09:50:25;42.42;;;24.35;;
78664;SDS011;67981;51.022;-2.870;2024-01-27T09:52:52;86.18;;;47.03;;
78664;SDS011;67981;51.022;-2.870;2024-01-27T09:55:18;16.60;;;10.73;;
78664;SDS011;67981;51.022;-2.870;2024-01-27T09:57:43;15.88;;;10.27;;
78664;SDS011;67981;51.022;-2.870;2024-01-27T10:00:10;14.07;;;9.18;;
78664;SDS011;67981;51.022;-2.870;2024-01-27T10:02:41;18.20;;;13.52;;
78664;SDS011;67981;51.022;-2.870;2024-01-27T10:05:08;23.63;;;17.05;;
78664;SDS011;67981;51.022;-2.870;2024-01-27T10:07:34;19.33;;;12.65;;
78664;SDS011;67981;51.022;-2.870;2024-01-27T10:10:00;23.85;;;16.17;;
78664;SDS011;67981;51.022;-2.870;2024-01-27T10:12:25;35.53;;;30.98;;
78664;SDS011;67981;51.022;-2.870;2024-01-27T10:14:53;25.70;;;21.60;;
78664;SDS011;67981;51.022;-2.870;2024-01-27T10:17:22;30.63;;;26.42;;
78664;SDS011;67981;51.022;-2.870;2024-01-27T10:19:58;22.15;;;19.20;;
78664;SDS011;67981;51.022;-2.870;2024-01-27T10:22:26;15.52;;;12.13;;
78664;SDS011;67981;51.022;-2.870;2024-01-27T10:24:52;20.73;;;18.40;;
78664;SDS011;67981;51.022;-2.870;2024-01-27T10:27:17;15.80;;;9.05;;
78664;SDS011;67981;51.022;-2.870;2024-01-27T10:29:53;12.95;;;10.18;;
78664;SDS011;67981;51.022;-2.870;2024-01-27T10:32:20;16.20;;;9.98;;
78664;SDS011;67981;51.022;-2.870;2024-01-27T10:34:49;44.03;;;26.58;;
78664;SDS011;67981;51.022;-2.870;2024-01-27T10:37:27;54.05;;;40.78;;
78664;SDS011;67981;51.022;-2.870;2024-01-27T10:39:59;31.15;;;27.92;;
78664;SDS011;67981;51.022;-2.870;2024-01-27T10:42:34;18.23;;;13.93;;
78664;SDS011;67981;51.022;-2.870;2024-01-27T10:45:03;21.25;;;19.05;;
78664;SDS011;67981;51.022;-2.870;2024-01-27T10:47:30;12.93;;;11.57;;
78664;SDS011;67981;51.022;-2.870;2024-01-27T10:49:57;12.75;;;9.70;;
78664;SDS011;67981;51.022;-2.870;2024-01-27T10:52:25;22.67;;;19.50;;
78664;SDS011;67981;51.022;-2.870;2024-01-27T10:55:00;55.35;;;41.80;;
78664;SDS011;67981;51.022;-2.870;2024-01-27T10:57:29;51.53;;;45.42;;
78664;SDS011;67981;51.022;-2.870;2024-01-27T10:59:55;36.28;;;32.45;;
78664;SDS011;67981;51.022;-2.870;2024-01-27T11:02:25;32.95;;;28.88;;
78664;SDS011;67981;51.022;-2.870;2024-01-27T11:04:50;35.75;;;29.23;;
78664;SDS011;67981;51.022;-2.870;2024-01-27T11:07:19;28.33;;;25.65;;
78664;SDS011;67981;51.022;-2.870;2024-01-27T11:09:49;21.33;;;16.95;;
78664;SDS011;67981;51.022;-2.870;2024-01-27T11:12:18;19.75;;;17.70;;
78664;SDS011;67981;51.022;-2.870;2024-01-27T11:14:49;16.83;;;12.10;;
78664;SDS011;67981;51.022;-2.870;2024-01-27T11:17:16;19.60;;;10.77;;
78664;SDS011;67981;51.022;-2.870;2024-01-27T11:19:42;34.53;;;13.07;;
78664;SDS011;67981;51.022;-2.870;2024-01-27T11:22:31;22.58;;;12.70;;
78664;SDS011;67981;51.022;-2.870;2024-01-27T11:25:30;14.82;;;9.90;;
78664;SDS011;67981;51.022;-2.870;2024-01-27T11:27:48;29.42;;;16.58;;
78664;SDS011;67981;51.022;-2.870;2024-01-27T11:30:26;29.05;;;16.42;;
78664;SDS011;67981;51.022;-2.870;2024-01-27T11:32:56;71.95;;;39.63;;
78664;SDS011;67981;51.022;-2.870;2024-01-27T11:35:23;16.55;;;9.00;;
78664;SDS011;67981;51.022;-2.870;2024-01-27T11:37:49;21.42;;;9.77;;
78664;SDS011;67981;51.022;-2.870;2024-01-27T11:40:14;28.35;;;13.00;;
78664;SDS011;67981;51.022;-2.870;2024-01-27T11:42:40;20.33;;;12.57;;
78664;SDS011;67981;51.022;-2.870;2024-01-27T11:45:07;23.65;;;13.48;;
78664;SDS011;67981;51.022;-2.870;2024-01-27T11:47:34;31.63;;;12.40;;
78664;SDS011;67981;51.022;-2.870;2024-01-27T11:49:59;21.08;;;7.05;;
78664;SDS011;67981;51.022;-2.870;2024-01-27T11:52:27;12.35;;;5.05;;
78664;SDS011;67981;51.022;-2.870;2024-01-27T11:54:56;35.50;;;23.67;;
78664;SDS011;67981;51.022;-2.870;2024-01-27T11:57:22;29.20;;;19.58;;
78664;SDS011;67981;51.022;-2.870;2024-01-27T11:59:48;22.98;;;19.48;;
78664;SDS011;67981;51.022;-2.870;2024-01-27T12:02:13;36.45;;;25.25;;
78664;SDS011;67981;51.022;-2.870;2024-01-27T12:04:39;21.50;;;17.55;;
78664;SDS011;67981;51.022;-2.870;2024-01-27T12:07:05;16.42;;;8.15;;
78664;SDS011;67981;51.022;-2.870;2024-01-27T12:09:32;12.88;;;7.18;;
78664;SDS011;67981;51.022;-2.870;2024-01-27T12:11:57;10.02;;;4.03;;
78664;SDS011;67981;51.022;-2.870;2024-01-27T12:14:22;12.98;;;5.60;;
78664;SDS011;67981;51.022;-2.870;2024-01-27T12:16:48;13.38;;;3.63;;
78664;SDS011;67981;51.022;-2.870;2024-01-27T12:19:13;12.52;;;4.38;;
78664;SDS011;67981;51.022;-2.870;2024-01-27T12:21:46;9.25;;;3.72;;
78664;SDS011;67981;51.022;-2.870;2024-01-27T12:24:16;10.48;;;3.42;;
78664;SDS011;67981;51.022;-2.870;2024-01-27T12:26:43;13.43;;;4.55;;
78664;SDS011;67981;51.022;-2.870;2024-01-27T12:29:09;33.67;;;16.30;;
78664;SDS011;67981;51.022;-2.870;2024-01-27T12:31:35;9.07;;;3.28;;
78664;SDS011;67981;51.022;-2.870;2024-01-27T12:34:00;7.00;;;1.63;;
78664;SDS011;67981;51.022;-2.870;2024-01-27T12:36:26;7.05;;;3.33;;
78664;SDS011;67981;51.022;-2.870;2024-01-27T12:41:27;8.40;;;2.42;;
78664;SDS011;67981;51.022;-2.870;2024-01-27T12:43:54;6.03;;;2.83;;
78664;SDS011;67981;51.022;-2.870;2024-01-27T12:46:20;8.98;;;2.08;;
78664;SDS011;67981;51.022;-2.870;2024-01-27T12:48:46;11.77;;;2.72;;
78664;SDS011;67981;51.022;-2.870;2024-01-27T12:51:12;5.32;;;2.45;;
78664;SDS011;67981;51.022;-2.870;2024-01-27T12:53:38;6.88;;;2.40;;
78664;SDS011;67981;51.022;-2.870;2024-01-27T12:56:07;6.85;;;2.80;;
78664;SDS011;67981;51.022;-2.870;2024-01-27T12:58:33;4.75;;;1.92;;
78664;SDS011;67981;51.022;-2.870;2024-01-27T13:00:59;6.57;;;2.13;;
78664;SDS011;67981;51.022;-2.870;2024-01-27T13:03:24;8.80;;;3.90;;
78664;SDS011;67981;51.022;-2.870;2024-01-27T13:05:50;10.60;;;2.40;;
78664;SDS011;67981;51.022;-2.870;2024-01-27T13:08:15;13.25;;;3.45;;
78664;SDS011;67981;51.022;-2.870;2024-01-27T13:10:40;8.45;;;3.90;;
78664;SDS011;67981;51.022;-2.870;2024-01-27T13:13:06;13.80;;;3.03;;
78664;SDS011;67981;51.022;-2.870;2024-01-27T13:15:31;11.35;;;3.08;;
78664;SDS011;67981;51.022;-2.870;2024-01-27T13:17:57;5.63;;;2.45;;
78664;SDS011;67981;51.022;-2.870;2024-01-27T13:20:22;15.40;;;3.47;;
78664;SDS011;67981;51.022;-2.870;2024-01-27T13:22:47;8.15;;;2.63;;
78664;SDS011;67981;51.022;-2.870;2024-01-27T13:25:13;11.27;;;4.47;;
78664;SDS011;67981;51.022;-2.870;2024-01-27T13:27:39;9.40;;;2.40;;
78664;SDS011;67981;51.022;-2.870;2024-01-27T13:30:04;8.60;;;2.58;;
78664;SDS011;67981;51.022;-2.870;2024-01-27T13:32:30;9.10;;;2.90;;
78664;SDS011;67981;51.022;-2.870;2024-01-27T13:34:56;13.57;;;3.28;;
78664;SDS011;67981;51.022;-2.870;2024-01-27T13:37:21;9.23;;;3.13;;
78664;SDS011;67981;51.022;-2.870;2024-01-27T13:39:47;13.57;;;3.78;;
78664;SDS011;67981;51.022;-2.870;2024-01-27T13:42:12;11.25;;;3.00;;
78664;SDS011;67981;51.022;-2.870;2024-01-27T13:44:38;10.15;;;3.30;;
78664;SDS011;67981;51.022;-2.870;2024-01-27T13:47:04;8.38;;;2.83;;
78664;SDS011;67981;51.022;-2.870;2024-01-27T13:49:31;8.52;;;3.53;;
78664;SDS011;67981;51.022;-2.870;2024-01-27T13:51:57;9.52;;;3.50;;
78664;SDS011;67981;51.022;-2.870;2024-01-27T13:54:22;8.80;;;2.25;;
78664;SDS011;67981;51.022;-2.870;2024-01-27T13:56:47;8.88;;;2.65;;
78664;SDS011;67981;51.022;-2.870;2024-01-27T13:59:13;13.23;;;3.95;;
78664;SDS011;67981;51.022;-2.870;2024-01-27T14:01:38;7.07;;;3.00;;
78664;SDS011;67981;51.022;-2.870;2024-01-27T14:04:04;8.65;;;2.78;;
78664;SDS011;67981;51.022;-2.870;2024-01-27T14:06:30;10.32;;;2.58;;
78664;SDS011;67981;51.022;-2.870;2024-01-27T14:08:55;9.07;;;2.33;;
78664;SDS011;67981;51.022;-2.870;2024-01-27T14:11:21;6.28;;;3.13;;
78664;SDS011;67981;51.022;-2.870;2024-01-27T14:13:47;8.23;;;3.00;;
78664;SDS011;67981;51.022;-2.870;2024-01-27T14:16:12;11.20;;;2.53;;
78664;SDS011;67981;51.022;-2.870;2024-01-27T14:18:38;8.95;;;2.13;;
78664;SDS011;67981;51.022;-2.870;2024-01-27T14:21:03;5.13;;;1.67;;
78664;SDS011;67981;51.022;-2.870;2024-01-27T14:23:29;11.05;;;3.40;;